Time;durP1;ratioP1;P1;durP2;ratioP2;P2;SDS_P1;SDS_P2;PMS_P1;PMS_P2;Temp;Humidity;BMP_temperature;BMP_pressure;BME280_temperature;BME280_humidity;BME280_pressure;Samples;Min_cycle;Max_cycle;Signal;HPM_P1;HPM_P2
2024/02/20 00:00:32;;;;;;;7.70;5.60;;;7.60;99.10;;;7.09;100.00;98680.06;5057471;28;20453;-76
2024/02/20 00:02:59;;;;;;;12.57;6.10;;;7.60;99.70;;;7.01;100.00;98680.97;5056821;28;20498;-72
2024/02/20 00:05:27;;;;;;;9.73;6.00;;;7.50;99.50;;;7.05;100.00;98682.31;5058074;28;20451;-76
2024/02/20 00:07:55;;;;;;;7.80;6.13;;;7.50;99.90;;;7.12;100.00;98681.59;5056182;28;20529;-75
2024/02/20 00:10:24;;;;;;;9.13;6.60;;;7.60;99.90;;;7.09;100.00;98680.94;5075651;28;20451;-77
2024/02/20 00:12:52;;;;;;;7.63;5.57;;;7.60;99.90;;;7.18;100.00;98679.03;5054947;28;20514;-76
2024/02/20 00:15:20;;;;;;;7.97;6.03;;;7.70;99.90;;;7.29;100.00;98672.41;5040405;28;20468;-79
2024/02/20 00:17:47;;;;;;;8.20;6.37;;;7.80;99.90;;;7.21;100.00;98684.03;5048665;28;20457;-78
2024/02/20 00:20:15;;;;;;;9.20;6.03;;;7.80;99.80;;;7.27;100.00;98685.19;5048326;28;20454;-78
2024/02/20 00:22:42;;;;;;;7.20;5.70;;;7.90;98.90;;;7.37;100.00;98687.63;5079946;28;20450;-73
2024/02/20 00:25:11;;;;;;;9.00;5.60;;;7.90;98.80;;;7.47;100.00;98679.34;5046685;28;20442;-73
2024/02/20 00:27:40;;;;;;;7.70;5.60;;;8.00;97.60;;;7.48;100.00;98681.00;5047219;28;20612;-77
2024/02/20 00:30:10;;;;;;;7.10;5.33;;;8.00;97.20;;;7.52;100.00;98685.03;5042081;28;20458;-77
2024/02/20 00:32:37;;;;;;;8.80;5.63;;;8.10;96.80;;;7.59;99.27;98680.59;5057417;28;20444;-76
2024/02/20 00:35:06;;;;;;;8.37;5.37;;;8.10;96.00;;;7.37;99.70;98680.44;5046392;28;20551;-75
2024/02/20 00:37:33;;;;;;;6.27;5.37;;;8.10;95.30;;;7.45;100.00;98687.59;5051125;28;20454;-76
2024/02/20 00:40:00;;;;;;;8.13;4.80;;;8.10;95.60;;;7.27;100.00;98681.66;5049150;28;20447;-73
2024/02/20 00:42:27;;;;;;;7.33;5.20;;;8.00;95.70;;;7.23;100.00;98689.25;5049243;28;20458;-77
2024/02/20 00:44:56;;;;;;;6.07;4.57;;;8.00;96.20;;;7.14;100.00;98687.63;5044222;28;20546;-74
2024/02/20 00:47:24;;;;;;;7.20;4.60;;;7.90;96.50;;;7.06;100.00;98700.09;5047880;28;20473;-77
2024/02/20 00:49:51;;;;;;;7.63;4.90;;;7.80;97.00;;;7.05;100.00;98695.75;5045148;28;20454;-75
2024/02/20 00:52:18;;;;;;;7.50;5.40;;;7.80;97.30;;;7.02;100.00;98690.69;5042854;28;21307;-76
2024/02/20 00:54:45;;;;;;;6.40;4.90;;;7.80;97.40;;;6.98;100.00;98697.44;5036537;28;20443;-78
2024/02/20 00:57:13;;;;;;;7.13;5.77;;;7.70;97.80;;;6.94;100.00;98690.75;5065018;28;20454;-76
2024/02/20 00:59:40;;;;;;;7.40;5.43;;;7.70;98.50;;;6.86;100.00;98698.84;5047788;28;20942;-76
2024/02/20 01:02:10;;;;;;;9.90;6.00;;;7.60;98.50;;;6.82;100.00;98700.19;5045715;28;20457;-76
2024/02/20 01:04:38;;;;;;;7.17;4.93;;;7.60;98.90;;;6.79;100.00;98694.16;5077877;28;21222;-76
2024/02/20 01:07:06;;;;;;;7.00;5.60;;;7.50;99.50;;;6.85;100.00;98692.63;5046950;28;21112;-77
2024/02/20 01:09:33;;;;;;;6.93;5.90;;;7.50;99.70;;;6.85;100.00;98689.09;5046701;28;20512;-78
2024/02/20 01:12:00;;;;;;;9.83;5.53;;;7.50;99.90;;;6.96;100.00;98688.72;5050956;28;20445;-78
2024/02/20 01:14:28;;;;;;;7.87;5.63;;;7.60;99.90;;;6.93;100.00;98689.09;5045994;28;20446;-79
2024/02/20 01:16:55;;;;;;;10.97;5.53;;;7.60;99.90;;;7.01;100.00;98691.72;5048453;28;20487;-77
2024/02/20 01:19:23;;;;;;;9.27;5.53;;;7.60;99.90;;;6.91;100.00;98686.56;5044586;28;20458;-79
2024/02/20 01:21:51;;;;;;;8.20;5.60;;;7.60;99.80;;;6.59;100.00;98612.34;5076711;28;20475;-74
2024/02/20 01:24:18;;;;;;;6.80;6.00;;;7.60;99.80;;;6.96;100.00;98688.72;5047263;28;20947;-77
2024/02/20 01:26:45;;;;;;;7.90;5.60;;;7.60;99.20;;;7.00;100.00;98678.47;5045024;28;20510;-75
2024/02/20 01:29:13;;;;;;;16.20;5.80;;;7.60;99.20;;;6.94;100.00;98680.81;5045678;28;20528;-76
2024/02/20 01:31:40;;;;;;;6.03;5.40;;;7.60;99.00;;;6.84;100.00;98679.38;5046534;28;20872;-75
2024/02/20 01:34:08;;;;;;;9.33;6.80;;;7.50;98.40;;;6.85;100.00;98681.03;5039402;28;20549;-74
2024/02/20 01:36:36;;;;;;;6.80;5.30;;;7.60;98.10;;;6.79;100.00;98678.06;5046323;28;20978;-76
2024/02/20 01:39:04;;;;;;;6.40;5.10;;;7.50;97.70;;;6.81;100.00;98672.50;5046331;28;20451;-76
2024/02/20 01:41:31;;;;;;;8.20;4.97;;;7.50;97.30;;;6.80;100.00;98674.34;5042324;28;20447;-77
2024/02/20 01:43:58;;;;;;;6.90;5.00;;;7.50;97.40;;;6.86;100.00;98662.06;5043212;28;20986;-73
2024/02/20 01:46:26;;;;;;;7.77;4.97;;;7.50;97.80;;;6.78;100.00;98665.63;5047958;28;20525;-76
2024/02/20 01:48:54;;;;;;;10.83;5.03;;;7.50;97.50;;;6.75;100.00;98668.69;5045768;28;20485;-78
2024/02/20 01:51:22;;;;;;;7.70;5.23;;;7.40;97.40;;;6.68;100.00;98673.06;5050580;28;20449;-74
2024/02/20 01:53:51;;;;;;;7.60;5.07;;;7.40;97.30;;;6.73;100.00;98673.38;5047467;28;20457;-76
2024/02/20 01:56:19;;;;;;;7.10;4.83;;;7.40;97.30;;;6.56;100.00;98655.66;5048209;28;20458;-76
2024/02/20 01:58:48;;;;;;;6.77;4.90;;;7.40;97.40;;;6.72;100.00;98678.94;5045844;28;20462;-76
2024/02/20 02:01:15;;;;;;;5.50;4.57;;;7.40;96.80;;;6.74;100.00;98675.03;5047505;28;20457;-77
2024/02/20 02:03:42;;;;;;;5.90;4.23;;;7.40;96.50;;;6.70;100.00;98678.28;5044168;28;20501;-75
2024/02/20 02:06:09;;;;;;;4.73;4.30;;;7.40;96.30;;;6.64;100.00;98677.94;5048259;28;20454;-74
2024/02/20 02:08:36;;;;;;;7.30;4.77;;;7.40;96.20;;;6.65;100.00;98676.09;5044926;28;20466;-75
2024/02/20 02:11:05;;;;;;;6.83;4.50;;;7.30;96.10;;;6.59;100.00;98677.63;5045886;28;20517;-74
2024/02/20 02:13:32;;;;;;;5.67;4.67;;;7.30;96.10;;;6.43;100.00;98672.31;5045454;28;20854;-76
2024/02/20 02:16:00;;;;;;;5.20;4.03;;;7.20;96.00;;;6.39;100.00;98669.13;5055134;28;20465;-74
2024/02/20 02:18:27;;;;;;;5.77;3.90;;;7.10;96.20;;;6.40;100.00;98673.50;5051839;28;20792;-79
2024/02/20 02:20:54;;;;;;;6.97;4.67;;;7.10;96.80;;;6.30;100.00;98667.50;5045784;28;20480;-72
2024/02/20 02:23:21;;;;;;;7.73;4.20;;;7.10;96.50;;;6.23;100.00;98673.53;5045820;28;20676;-78
2024/02/20 02:25:48;;;;;;;10.37;5.10;;;6.90;96.50;;;6.15;100.00;98675.41;5045993;28;20442;-72
2024/02/20 02:28:16;;;;;;;7.13;4.20;;;6.90;96.70;;;6.05;100.00;98680.97;5046409;28;20489;-77
2024/02/20 02:30:45;;;;;;;5.50;4.40;;;6.80;96.90;;;5.99;100.00;98673.53;5045702;28;20441;-77
2024/02/20 02:33:12;;;;;;;5.70;4.30;;;6.70;97.00;;;5.85;100.00;98667.03;5039712;28;20445;-78
2024/02/20 02:35:39;;;;;;;5.07;4.30;;;6.60;97.20;;;5.34;100.00;98593.81;5046097;28;20794;-74
2024/02/20 02:38:06;;;;;;;5.60;4.10;;;6.60;97.80;;;5.83;100.00;98683.28;5045726;28;20537;-76
2024/02/20 02:40:33;;;;;;;6.93;4.33;;;6.60;98.50;;;5.71;100.00;98663.19;5041935;28;20448;-77
2024/02/20 02:43:01;;;;;;;5.63;3.63;;;6.50;98.30;;;5.80;100.00;98681.78;5045928;28;20445;-71
2024/02/20 02:45:31;;;;;;;6.80;4.13;;;6.50;98.60;;;5.82;100.00;98686.97;5050292;28;20445;-72
2024/02/20 02:47:58;;;;;;;6.47;4.13;;;6.50;98.80;;;5.41;100.00;98634.19;5049716;28;21043;-70
2024/02/20 02:50:25;;;;;;;7.67;4.20;;;6.60;98.90;;;5.80;100.00;98681.78;5040822;28;20469;-75
2024/02/20 02:52:53;;;;;;;7.80;4.40;;;6.50;98.90;;;5.91;100.00;98690.47;5042829;28;20445;-76
2024/02/20 02:55:25;;;;;;;6.00;4.30;;;6.60;99.20;;;5.88;100.00;98686.31;5060559;28;20450;-76
2024/02/20 02:57:52;;;;;;;6.17;4.30;;;6.60;98.50;;;6.00;100.00;98694.03;5048756;28;20439;-78
2024/02/20 03:00:20;;;;;;;6.67;4.20;;;6.70;98.60;;;5.96;100.00;98691.66;5043437;28;20479;-74
2024/02/20 03:02:49;;;;;;;7.93;4.43;;;6.70;98.00;;;6.09;100.00;98695.69;5043987;28;20453;-74
2024/02/20 03:05:16;;;;;;;6.50;4.67;;;6.80;98.00;;;6.08;100.00;98699.41;5048952;28;20474;-77
2024/02/20 03:07:44;;;;;;;6.10;4.10;;;6.70;97.20;;;6.19;100.00;98698.19;5049632;28;20448;-76
2024/02/20 03:10:12;;;;;;;7.53;4.10;;;6.80;97.20;;;6.07;100.00;98703.09;5046956;28;21042;-78
2024/02/20 03:12:40;;;;;;;5.50;4.23;;;6.80;96.60;;;6.07;100.00;98709.31;5048428;28;20531;-74
2024/02/20 03:15:09;;;;;;;7.57;4.00;;;6.80;96.30;;;6.11;100.00;98709.78;5045420;28;20449;-73
2024/02/20 03:17:39;;;;;;;8.03;5.20;;;6.80;95.80;;;6.18;99.62;98708.09;5045251;28;20457;-78
2024/02/20 03:20:14;;;;;;;6.33;3.90;;;6.90;95.40;;;6.15;100.00;98708.44;5062943;28;20616;-78
2024/02/20 03:22:42;;;;;;;7.60;3.60;;;6.90;95.20;;;6.14;100.00;98712.16;5048113;28;20447;-76
2024/02/20 03:25:10;;;;;;;6.40;4.00;;;6.90;95.30;;;6.29;99.81;98719.47;5045843;28;20459;-75
2024/02/20 03:27:37;;;;;;;6.20;4.10;;;6.90;95.40;;;6.21;99.44;98713.13;5048132;28;20450;-78
2024/02/20 03:30:06;;;;;;;5.87;4.40;;;6.90;94.70;;;6.24;100.00;98710.09;5055356;28;20531;-78
2024/02/20 03:32:34;;;;;;;5.90;4.20;;;6.90;94.90;;;6.28;99.51;98709.75;5051436;28;20459;-78
2024/02/20 03:35:02;;;;;;;7.17;4.50;;;6.90;94.90;;;6.30;99.93;98715.81;5045294;28;20472;-76
2024/02/20 03:37:31;;;;;;;7.83;4.60;;;6.90;94.80;;;6.36;99.33;98712.44;5051989;28;20455;-75
2024/02/20 03:39:58;;;;;;;8.03;4.87;;;7.00;95.00;;;6.31;99.18;98728.22;5048304;28;20544;-74
2024/02/20 03:42:25;;;;;;;6.57;4.90;;;7.00;94.50;;;6.26;99.66;98719.81;5054326;28;20459;-76
2024/02/20 03:44:52;;;;;;;5.27;4.57;;;7.00;94.90;;;6.36;98.33;98733.91;5047794;28;20465;-74
2024/02/20 03:47:19;;;;;;;5.80;4.33;;;7.00;94.60;;;6.44;98.20;98738.41;5047084;28;20458;-78
2024/02/20 03:49:48;;;;;;;6.23;4.33;;;7.10;94.60;;;6.40;98.12;98732.53;5046147;28;20475;-73
2024/02/20 03:52:15;;;;;;;10.77;4.43;;;7.10;94.70;;;6.32;98.88;98729.91;5050772;28;20863;-80
2024/02/20 03:54:44;;;;;;;5.10;4.40;;;7.00;94.60;;;6.35;99.07;98741.09;5070396;28;20457;-75
2024/02/20 03:57:11;;;;;;;8.30;4.30;;;7.00;94.50;;;6.34;99.10;98738.59;5048080;28;20466;-77
2024/02/20 03:59:38;;;;;;;6.60;4.60;;;7.00;94.50;;;6.28;98.99;98734.75;5062349;28;20471;-73
2024/02/20 04:02:06;;;;;;;11.60;4.40;;;7.00;94.10;;;6.31;98.80;98741.63;5047297;28;20467;-76
2024/02/20 04:04:34;;;;;;;7.80;4.73;;;7.00;94.20;;;6.38;98.45;98748.00;5046602;28;20445;-74
2024/02/20 04:07:01;;;;;;;7.07;5.00;;;7.10;94.20;;;6.30;98.31;98731.91;5040917;28;20509;-74
2024/02/20 04:09:30;;;;;;;6.77;4.90;;;7.10;93.90;;;6.27;98.51;98742.97;5047805;28;20986;-78
2024/02/20 04:11:59;;;;;;;7.73;4.77;;;7.00;93.90;;;6.29;98.44;98741.78;5049481;28;20537;-77
2024/02/20 04:14:26;;;;;;;10.57;5.20;;;7.00;93.80;;;6.46;97.91;98753.34;5055992;28;20457;-76
2024/02/20 04:16:53;;;;;;;5.10;4.43;;;7.10;94.00;;;6.27;98.49;98756.38;5046940;28;20525;-76
2024/02/20 04:19:20;;;;;;;6.60;4.90;;;7.00;93.60;;;6.22;98.65;98763.09;5052829;28;20445;-74
2024/02/20 04:21:48;;;;;;;8.93;5.30;;;7.00;93.60;;;6.30;98.16;98758.75;5048258;28;20462;-73
2024/02/20 04:24:15;;;;;;;6.30;5.57;;;7.00;93.90;;;6.29;98.43;98763.28;5047064;28;20961;-74
2024/02/20 04:26:42;;;;;;;10.50;5.70;;;7.00;93.90;;;6.31;98.96;98781.91;5047788;28;20443;-76
2024/02/20 04:29:11;;;;;;;7.77;5.70;;;7.00;93.90;;;6.25;99.23;98778.03;5037863;28;20874;-71
2024/02/20 04:31:38;;;;;;;8.40;5.10;;;7.00;94.00;;;6.24;98.33;98777.19;5048614;28;21073;-78
2024/02/20 04:34:05;;;;;;;9.87;5.70;;;7.00;94.00;;;6.17;98.74;98756.56;5056204;28;20510;-77
2024/02/20 04:36:32;;;;;;;8.30;4.90;;;7.00;94.10;;;6.22;98.70;98779.22;5063171;28;20612;-79
2024/02/20 04:38:59;;;;;;;9.10;5.93;;;7.00;93.90;;;6.33;98.70;98783.38;5067904;28;20442;-74
2024/02/20 04:41:27;;;;;;;13.60;5.63;;;7.00;94.20;;;6.32;98.66;98788.94;5053787;28;20454;-77
2024/02/20 04:43:54;;;;;;;7.63;5.83;;;7.00;94.00;;;6.15;99.31;98797.00;5047781;28;20469;-77
2024/02/20 04:46:23;;;;;;;7.57;5.23;;;7.00;94.00;;;6.19;99.69;98790.28;5046983;28;20508;-75
2024/02/20 04:48:50;;;;;;;8.77;5.87;;;6.90;94.20;;;5.96;99.93;98760.56;5053561;28;20562;-76
2024/02/20 04:51:17;;;;;;;8.00;5.70;;;7.00;94.60;;;6.09;100.00;98801.19;5050181;28;20460;-77
2024/02/20 04:53:44;;;;;;;8.80;6.07;;;6.90;94.80;;;6.13;100.00;98800.84;5045973;28;20446;-70
2024/02/20 04:56:12;;;;;;;9.73;6.20;;;6.90;95.50;;;6.04;100.00;98802.69;5076647;28;20836;-75
2024/02/20 04:58:39;;;;;;;7.63;6.00;;;6.80;95.80;;;6.03;100.00;98799.16;5044718;28;20446;-77
2024/02/20 05:01:07;;;;;;;8.70;5.93;;;6.80;96.20;;;5.99;100.00;98804.97;5045661;28;20500;-73
2024/02/20 05:03:36;;;;;;;9.00;5.57;;;6.80;96.70;;;6.05;100.00;98809.72;5054222;28;20453;-73
2024/02/20 05:06:03;;;;;;;10.30;6.97;;;6.80;97.00;;;6.09;100.00;98813.75;5038548;28;20466;-73
2024/02/20 05:08:31;;;;;;;8.40;5.93;;;6.80;97.10;;;5.95;100.00;98821.41;5048420;28;21218;-76
2024/02/20 05:10:58;;;;;;;9.63;7.00;;;6.80;96.80;;;5.94;100.00;98816.25;5045347;28;20457;-72
2024/02/20 05:13:25;;;;;;;8.90;6.17;;;6.70;97.20;;;5.87;100.00;98821.41;5045387;28;20446;-76
2024/02/20 05:15:52;;;;;;;11.90;6.47;;;6.70;96.90;;;5.80;100.00;98821.25;5041529;28;20486;-76
2024/02/20 05:18:19;;;;;;;9.07;6.77;;;6.70;96.70;;;5.84;100.00;98827.13;5041172;28;20457;-76
2024/02/20 05:20:49;;;;;;;8.03;5.50;;;6.70;96.90;;;5.87;100.00;98823.25;5050572;28;20457;-75
2024/02/20 05:23:16;;;;;;;7.07;5.37;;;6.70;97.40;;;5.90;100.00;98822.91;5048313;28;20452;-76
2024/02/20 05:25:43;;;;;;;10.50;7.03;;;6.70;97.90;;;5.84;100.00;98819.06;5044036;28;20845;-74
2024/02/20 05:28:11;;;;;;;8.53;5.93;;;6.70;98.00;;;5.86;100.00;98825.09;5044249;28;20512;-75
2024/02/20 05:30:38;;;;;;;10.93;6.10;;;6.70;98.70;;;5.91;100.00;98825.44;5047238;28;20478;-75
2024/02/20 05:33:06;;;;;;;11.10;6.73;;;6.70;99.40;;;5.89;100.00;98830.13;5046531;28;20957;-73
2024/02/20 05:35:33;;;;;;;9.27;6.93;;;6.70;99.90;;;5.82;100.00;98829.09;5050487;28;20450;-73
2024/02/20 05:38:05;;;;;;;8.77;6.07;;;6.60;99.50;;;5.84;100.00;98829.81;5043401;28;20966;-70
2024/02/20 05:40:32;;;;;;;15.03;7.00;;;6.60;99.80;;;5.83;100.00;98838.81;5047318;28;20485;-77
2024/02/20 05:43:00;;;;;;;8.60;6.13;;;6.70;99.00;;;5.87;100.00;98842.88;5060657;28;20446;-73
2024/02/20 05:45:27;;;;;;;7.80;5.43;;;6.70;98.50;;;5.84;100.00;98845.91;5046833;28;20950;-77
2024/02/20 05:47:54;;;;;;;11.60;6.80;;;6.70;97.60;;;5.85;100.00;98844.91;5045722;28;20458;-80
2024/02/20 05:50:22;;;;;;;7.70;5.00;;;6.70;97.50;;;5.88;100.00;98841.88;5045858;28;20478;-79
2024/02/20 05:52:50;;;;;;;9.33;6.00;;;6.70;97.50;;;5.84;100.00;98856.63;5044721;28;20488;-80
2024/02/20 05:55:18;;;;;;;7.20;5.90;;;6.70;97.00;;;5.82;100.00;98869.34;5046739;28;20575;-81
2024/02/20 05:57:46;;;;;;;9.27;4.83;;;6.60;96.40;;;5.83;100.00;98849.56;5043275;28;20458;-73
2024/02/20 06:00:14;;;;;;;9.27;5.40;;;6.70;96.80;;;5.81;100.00;98873.03;5041619;28;20482;-75
2024/02/20 06:02:41;;;;;;;9.40;5.30;;;6.60;96.30;;;5.79;100.00;98877.72;5062549;28;20902;-75
2024/02/20 06:05:09;;;;;;;10.90;5.90;;;6.60;95.70;;;5.52;100.00;98807.25;5048276;28;20454;-79
2024/02/20 06:07:39;;;;;;;7.83;5.60;;;6.70;95.70;;;5.93;100.00;98863.66;5043510;28;20554;-77
2024/02/20 06:10:08;;;;;;;8.97;5.30;;;6.70;95.50;;;5.84;100.00;98859.31;5046844;28;20469;-81
2024/02/20 06:12:37;;;;;;;14.37;6.13;;;6.70;95.00;;;5.79;100.00;98864.31;5045983;28;20519;-77
2024/02/20 06:15:07;;;;;;;6.40;4.53;;;6.70;94.30;;;5.81;100.00;98873.88;5047102;28;20508;-74
2024/02/20 06:17:34;;;;;;;7.93;5.20;;;6.70;94.50;;;5.79;99.97;98870.53;5068244;28;20449;-76
2024/02/20 06:20:01;;;;;;;12.23;6.30;;;6.60;94.40;;;5.75;99.79;98862.97;5075305;28;20480;-76
2024/02/20 06:22:29;;;;;;;9.63;5.73;;;6.60;94.30;;;5.79;99.77;98875.03;5065148;28;20445;-78
2024/02/20 06:24:56;;;;;;;9.67;5.83;;;6.60;94.00;;;5.87;99.46;98888.47;5060398;28;20930;-76
2024/02/20 06:27:24;;;;;;;10.87;5.37;;;6.70;94.10;;;5.90;98.99;98896.19;5044576;28;20444;-79
2024/02/20 06:29:53;;;;;;;8.80;5.03;;;6.70;93.90;;;5.96;99.40;98889.34;5038353;28;20474;-75
2024/02/20 06:32:20;;;;;;;9.27;5.23;;;6.70;94.10;;;5.82;98.58;98890.78;5048079;28;20469;-77
2024/02/20 06:34:47;;;;;;;13.30;5.37;;;6.70;93.40;;;5.90;98.34;98893.50;5048391;28;20469;-80
2024/02/20 06:37:15;;;;;;;11.40;6.03;;;6.70;93.30;;;5.90;97.36;98888.16;5041294;28;20486;-80
2024/02/20 06:39:42;;;;;;;10.20;5.43;;;6.70;92.90;;;5.91;96.76;98888.97;5045448;28;20460;-77
2024/02/20 06:42:09;;;;;;;8.40;4.90;;;6.70;92.60;;;5.92;96.34;98901.41;5052599;28;20452;-78
2024/02/20 06:44:36;;;;;;;8.07;5.27;;;6.70;92.40;;;6.04;96.15;98900.09;5050460;28;20477;-76
2024/02/20 06:47:05;;;;;;;8.43;5.37;;;6.80;92.50;;;5.95;95.80;98904.56;5060702;28;20457;-71
2024/02/20 06:49:32;;;;;;;7.50;4.67;;;6.80;91.90;;;6.01;95.00;98910.31;5062727;28;20476;-71
2024/02/20 06:51:59;;;;;;;8.10;5.43;;;6.80;91.80;;;6.10;94.87;98912.03;5075193;28;20521;-80
2024/02/20 06:54:27;;;;;;;10.80;4.80;;;6.80;91.70;;;5.86;93.85;98843.88;5040468;28;20449;-77
2024/02/20 06:56:54;;;;;;;13.30;7.10;;;6.90;91.50;;;6.34;93.46;98911.22;5039045;28;20451;-72
2024/02/20 06:59:21;;;;;;;10.83;5.30;;;7.00;91.30;;;6.05;93.47;98871.44;5039661;28;20465;-74
2024/02/20 07:01:48;;;;;;;8.97;5.33;;;7.10;91.20;;;6.33;93.07;98922.13;5039686;28;20516;-70
2024/02/20 07:04:17;;;;;;;8.73;5.17;;;7.10;90.90;;;6.28;92.87;98911.03;5040806;28;23094;-68
2024/02/20 07:06:44;;;;;;;9.90;4.63;;;7.10;90.80;;;6.43;92.91;98921.97;5032607;28;21079;-70
2024/02/20 07:09:12;;;;;;;14.40;5.00;;;7.10;91.00;;;6.35;92.37;98928.19;5032486;28;20465;-69
2024/02/20 07:11:39;;;;;;;8.90;4.80;;;7.20;90.80;;;6.34;91.68;98926.50;5043537;28;20451;-81
2024/02/20 07:14:07;;;;;;;8.67;4.53;;;7.10;90.40;;;6.29;93.00;98937.72;5040575;28;20446;-69
2024/02/20 07:16:36;;;;;;;7.97;5.30;;;7.10;90.70;;;6.35;92.78;98941.59;5058995;28;20460;-69
2024/02/20 07:19:03;;;;;;;12.23;5.33;;;7.10;90.80;;;6.38;92.74;98942.13;5037523;28;21003;-68
2024/02/20 07:21:32;;;;;;;11.17;4.67;;;7.10;90.80;;;6.55;92.36;98950.19;5039838;28;20504;-69
2024/02/20 07:23:59;;;;;;;10.50;4.90;;;7.20;90.90;;;6.41;92.33;98954.34;5033150;28;20467;-69
2024/02/20 07:26:27;;;;;;;9.73;4.20;;;7.10;90.60;;;6.43;91.79;98946.97;5038642;28;20458;-69
2024/02/20 07:28:55;;;;;;;7.20;4.13;;;7.20;90.60;;;6.51;91.45;98948.81;5039429;28;21094;-69
2024/02/20 07:31:23;;;;;;;6.77;3.73;;;7.20;90.30;;;6.60;90.85;98958.56;5036110;28;20589;-70
2024/02/20 07:33:50;;;;;;;8.07;4.50;;;7.30;90.20;;;6.66;90.04;98952.50;5043382;28;20463;-70
2024/02/20 07:36:17;;;;;;;7.30;4.10;;;7.30;90.00;;;6.66;89.34;98957.06;5045006;28;20541;-70
2024/02/20 07:38:46;;;;;;;6.93;3.80;;;7.40;89.50;;;6.71;88.36;98959.25;5036137;28;20740;-69
2024/02/20 07:41:14;;;;;;;10.10;3.27;;;7.40;88.70;;;6.70;88.53;98953.03;5061027;28;20478;-70
2024/02/20 07:43:41;;;;;;;5.50;3.30;;;7.50;88.40;;;6.60;88.11;98960.44;5037422;28;20927;-70
2024/02/20 07:46:09;;;;;;;6.97;3.50;;;7.40;88.10;;;6.76;88.10;98968.50;5041016;28;20455;-70
2024/02/20 07:48:37;;;;;;;5.30;3.10;;;7.50;88.40;;;6.70;87.82;98965.63;5037573;28;20567;-70
2024/02/20 07:51:07;;;;;;;5.67;3.57;;;7.40;88.10;;;6.57;87.66;98963.41;5043152;28;20604;-70
2024/02/20 07:53:34;;;;;;;7.27;4.00;;;7.40;87.90;;;6.60;87.38;98979.22;5039332;28;20461;-68
2024/02/20 07:56:05;;;;;;;9.10;2.90;;;7.30;87.90;;;6.14;87.63;98910.72;5033282;28;20473;-82
2024/02/20 07:58:34;;;;;;;10.90;3.30;;;7.30;87.80;;;6.63;87.44;98978.88;5030477;28;20458;-82
2024/02/20 08:01:01;;;;;;;5.10;2.80;;;7.30;87.80;;;6.73;86.48;98978.72;5042357;28;20476;-83
2024/02/20 08:03:29;;;;;;;4.17;3.00;;;7.40;87.60;;;6.67;86.99;98974.84;5031498;28;20463;-80
2024/02/20 08:05:56;;;;;;;7.77;3.40;;;7.40;87.30;;;6.69;85.98;98961.28;5034415;28;21066;-81
2024/02/20 08:08:23;;;;;;;9.97;3.90;;;7.50;87.20;;;6.77;86.18;98986.28;5035929;28;20442;-83
2024/02/20 08:10:50;;;;;;;7.83;3.50;;;7.50;87.00;;;6.82;85.81;98988.44;5045301;28;20959;-81
2024/02/20 08:13:23;;;;;;;6.97;3.53;;;7.50;86.90;;;6.83;86.33;98976.72;5045168;28;21623;-83
2024/02/20 08:15:50;;;;;;;6.53;3.90;;;7.60;87.10;;;6.79;85.36;98984.25;5040904;28;20479;-82
2024/02/20 08:18:18;;;;;;;9.23;4.87;;;7.60;86.50;;;6.87;85.88;98985.25;5046327;28;20860;-83
2024/02/20 08:20:48;;;;;;;7.90;4.13;;;7.60;86.90;;;6.89;86.24;98989.47;5043815;28;20473;-83
2024/02/20 08:23:15;;;;;;;7.97;4.47;;;7.60;86.70;;;6.67;85.91;98958.75;5043040;28;20567;-84
2024/02/20 08:25:42;;;;;;;10.17;4.50;;;7.60;86.60;;;6.92;86.10;98996.38;5038984;28;20436;-81
2024/02/20 08:28:09;;;;;;;7.60;4.37;;;7.70;86.90;;;7.12;85.87;98991.47;5041863;28;20608;-81
2024/02/20 08:30:39;;;;;;;9.47;4.60;;;7.80;87.10;;;7.06;85.06;98998.38;5040842;28;20482;-79
2024/02/20 08:33:07;;;;;;;7.10;4.57;;;7.80;86.40;;;7.04;84.97;98986.09;5046470;28;21086;-82
2024/02/20 08:35:34;;;;;;;14.17;4.70;;;7.80;86.60;;;7.12;84.50;98993.31;5050988;28;21139;-81
2024/02/20 08:38:02;;;;;;;8.63;4.00;;;7.80;86.30;;;7.20;85.37;98999.53;5044560;28;20953;-79
2024/02/20 08:40:29;;;;;;;12.60;4.53;;;7.90;86.60;;;7.23;85.08;99004.56;5050623;28;20520;-82
2024/02/20 08:42:57;;;;;;;11.30;5.80;;;8.00;86.40;;;7.47;83.96;99000.16;5047779;28;20476;-81
2024/02/20 08:45:24;;;;;;;9.33;4.83;;;8.10;86.30;;;7.09;83.62;98938.91;5061999;28;20435;-79
2024/02/20 08:47:54;;;;;;;10.80;4.60;;;8.20;86.00;;;7.37;82.77;99005.75;5093172;28;20452;-77
2024/02/20 08:50:22;;;;;;;12.87;4.80;;;8.20;85.50;;;7.49;81.40;99000.84;5060121;28;20502;-83
2024/02/20 08:52:49;;;;;;;11.70;4.90;;;8.20;84.80;;;7.50;81.25;99012.41;5050423;28;20443;-78
2024/02/20 08:55:16;;;;;;;28.03;4.63;;;8.20;84.70;;;7.33;80.84;99008.94;5061611;28;20446;-77
2024/02/20 08:57:44;;;;;;;7.30;3.73;;;8.10;84.20;;;7.33;80.33;99009.75;5073309;28;20479;-77
2024/02/20 09:00:13;;;;;;;10.60;4.10;;;8.10;83.80;;;7.38;80.34;99011.94;5095563;28;20446;-77
2024/02/20 09:02:40;;;;;;;9.77;4.47;;;8.10;83.90;;;7.37;80.45;98997.66;5059532;28;20460;-79
2024/02/20 09:05:10;;;;;;;13.07;4.70;;;8.10;83.80;;;7.43;79.72;99001.53;5086116;28;20507;-78
2024/02/20 09:07:38;;;;;;;11.23;4.63;;;8.20;83.50;;;7.44;79.70;99013.97;5060636;28;20446;-77
2024/02/20 09:10:07;;;;;;;9.80;5.10;;;8.20;83.50;;;7.53;80.27;99017.47;5073390;28;20457;-83
2024/02/20 09:12:35;;;;;;;17.37;5.47;;;8.20;83.70;;;7.59;79.37;99022.16;5053498;28;20452;-82
2024/02/20 09:15:03;;;;;;;9.33;4.80;;;8.30;83.50;;;7.40;78.15;99014.47;5060909;28;20470;-84
2024/02/20 09:17:31;;;;;;;11.03;3.57;;;8.20;82.50;;;7.44;78.26;99046.22;5044807;28;20597;-79
2024/02/20 09:19:58;;;;;;;11.37;4.50;;;8.20;82.50;;;7.32;79.00;99026.91;5039338;28;20466;-78
2024/02/20 09:22:28;;;;;;;10.67;5.13;;;8.10;82.60;;;7.43;79.33;99017.66;5038984;28;20457;-81
2024/02/20 09:24:55;;;;;;;9.93;4.23;;;8.20;82.80;;;7.56;78.08;99044.03;5038868;28;20465;-81
2024/02/20 09:27:22;;;;;;;7.50;4.03;;;8.30;82.50;;;7.61;77.79;99035.44;5054538;28;20446;-74
2024/02/20 09:29:49;;;;;;;13.47;4.50;;;8.30;82.10;;;7.56;77.42;99043.16;5070965;28;20454;-74
2024/02/20 09:32:17;;;;;;;8.90;4.50;;;8.30;82.00;;;7.65;76.98;99040.28;5060393;28;20469;-80
2024/02/20 09:34:45;;;;;;;9.10;3.93;;;8.40;82.00;;;7.93;75.59;99042.56;5075435;28;20446;-78
2024/02/20 09:37:12;;;;;;;11.80;4.03;;;8.60;81.60;;;8.11;75.48;99036.09;5044080;28;20454;-81
2024/02/20 09:39:41;;;;;;;8.57;4.50;;;8.70;81.60;;;7.94;75.03;99041.56;5079976;28;20468;-78
2024/02/20 09:42:13;;;;;;;7.60;4.00;;;8.70;80.90;;;7.93;75.74;99034.50;5078323;28;20447;-80
2024/02/20 09:44:41;;;;;;;14.57;5.30;;;8.60;81.30;;;7.67;75.48;99007.03;5040587;28;20459;-77
2024/02/20 09:47:11;;;;;;;8.07;4.20;;;8.60;81.40;;;8.06;74.97;99051.94;5060152;28;20451;-80
2024/02/20 09:49:40;;;;;;;11.07;4.80;;;8.70;81.00;;;8.25;74.89;99042.63;5075401;28;20951;-80
2024/02/20 09:52:08;;;;;;;12.57;4.90;;;8.90;81.10;;;8.14;75.09;99038.47;5054082;28;20916;-78
2024/02/20 09:54:36;;;;;;;11.97;4.57;;;8.90;80.70;;;7.86;73.65;99017.38;5055373;28;20518;-81
2024/02/20 09:57:05;;;;;;;10.37;4.93;;;8.80;80.20;;;7.93;75.02;99056.03;5043048;28;20925;-78
2024/02/20 09:59:32;;;;;;;10.83;4.47;;;8.70;80.60;;;7.65;75.37;98994.56;5042277;28;20453;-78
2024/02/20 10:02:00;;;;;;;10.73;4.67;;;8.70;80.90;;;8.05;75.11;99063.72;5034923;28;20456;-75
2024/02/20 10:04:32;;;;;;;11.90;4.20;;;8.80;80.80;;;7.91;73.99;99062.63;5039651;28;20438;-80
2024/02/20 10:07:04;;;;;;;15.43;4.27;;;8.70;79.90;;;7.94;73.74;99065.78;5061362;28;20509;-79
2024/02/20 10:09:32;;;;;;;8.57;4.10;;;8.70;79.90;;;7.98;73.76;99065.44;5045511;28;20852;-77
2024/02/20 10:11:59;;;;;;;12.13;4.53;;;8.70;79.70;;;8.00;73.63;99055.34;5041566;28;20481;-72
2024/02/20 10:14:31;;;;;;;13.53;4.70;;;8.80;79.80;;;7.94;73.02;99060.38;5044083;28;21184;-78
2024/02/20 10:17:03;;;;;;;16.33;4.97;;;8.80;79.60;;;7.88;73.78;99066.47;5039925;28;20457;-74
2024/02/20 10:19:30;;;;;;;12.37;4.93;;;8.60;79.70;;;8.02;74.00;99064.91;5043079;28;20456;-80
2024/02/20 10:21:59;;;;;;;9.83;4.17;;;8.70;79.80;;;8.35;72.03;99059.41;5041101;28;20443;-81
2024/02/20 10:24:26;;;;;;;9.67;3.97;;;9.00;79.10;;;8.17;71.03;99062.34;5042086;28;20454;-79
2024/02/20 10:26:53;;;;;;;13.07;4.67;;;8.90;78.40;;;8.28;70.38;99063.00;5041357;28;20451;-76
2024/02/20 10:29:21;;;;;;;7.53;3.67;;;9.00;78.30;;;8.46;69.79;99055.50;5039356;28;20453;-76